Time;durP1;ratioP1;P1;durP2;ratioP2;P2;SDS_P1;SDS_P2;PMS_P1;PMS_P2;Temp;Humidity;BMP_temperature;BMP_pressure;BME280_temperature;BME280_humidity;BME280_pressure;Samples;Min_cycle;Max_cycle;Signal;HPM_P1;HPM_P2
2022/04/13 00:00:48;;;;;;;1.23;1.13;;;;;;;16.32;40.88;95852.22;5006225;28;20278;-83
2022/04/13 00:03:15;;;;;;;3.70;1.37;;;;;;;16.24;40.98;95859.06;4998109;28;20216;-83
2022/04/13 00:05:42;;;;;;;1.50;1.10;;;;;;;16.15;40.50;95841.66;5002811;28;20204;-83
2022/04/13 00:08:09;;;;;;;3.60;1.40;;;;;;;16.18;41.64;95853.88;5011362;28;20240;-83
2022/04/13 00:10:38;;;;;;;2.57;1.23;;;;;;;16.05;42.83;95841.69;4992062;28;20204;-83
2022/04/13 00:13:05;;;;;;;2.03;1.30;;;;;;;16.01;39.92;95845.22;4999744;28;20315;-83
2022/04/13 00:15:33;;;;;;;1.90;1.37;;;;;;;15.99;41.70;95850.16;4992230;28;20224;-83
2022/04/13 00:18:05;;;;;;;1.43;1.33;;;;;;;15.92;43.20;95844.16;5007635;28;20529;-83
2022/04/13 00:20:32;;;;;;;1.50;1.40;;;;;;;15.77;43.65;95850.47;5005468;28;20235;-83
2022/04/13 00:22:59;;;;;;;2.93;1.60;;;;;;;15.70;42.24;95847.22;4997913;28;20208;-83
2022/04/13 00:25:28;;;;;;;6.73;1.37;;;;;;;15.65;43.41;95860.84;5012630;28;20208;-83
2022/04/13 00:27:55;;;;;;;2.33;1.50;;;;;;;15.64;43.72;95848.31;4994885;28;20236;-83
2022/04/13 00:30:22;;;;;;;2.67;1.30;;;;;;;15.55;45.70;95858.94;5005295;28;20226;-83
2022/04/13 00:32:51;;;;;;;1.47;1.37;;;;;;;15.52;46.09;95854.81;4992363;28;20208;-83
2022/04/13 00:35:18;;;;;;;1.80;1.40;;;;;;;15.44;46.91;95854.56;5004986;28;20239;-83
2022/04/13 00:37:45;;;;;;;2.83;1.20;;;;;;;15.34;46.60;95843.66;5002224;28;20212;-83
2022/04/13 00:40:13;;;;;;;1.60;1.47;;;;;;;15.18;49.43;95851.00;4997449;28;20327;-83
2022/04/13 00:42:40;;;;;;;1.80;1.37;;;;;;;14.96;48.97;95854.00;4994761;28;20217;-83
2022/04/13 00:45:07;;;;;;;1.40;1.20;;;;;;;14.96;48.07;95848.56;5008580;28;20207;-83
2022/04/13 00:47:39;;;;;;;1.83;1.43;;;;;;;15.06;46.19;95839.56;5012609;28;20236;-83
2022/04/13 00:50:09;;;;;;;1.20;1.10;;;;;;;15.09;44.87;95852.63;4999227;28;20231;-83
2022/04/13 00:52:41;;;;;;;2.60;1.30;;;;;;;15.13;44.19;95842.84;5008991;28;20230;-83
2022/04/13 00:55:10;;;;;;;2.90;1.30;;;;;;;15.21;44.32;95844.22;5008042;28;20282;-83
2022/04/13 00:57:38;;;;;;;3.47;1.50;;;;;;;15.20;44.70;95842.59;4993589;28;20218;-83
2022/04/13 01:00:09;;;;;;;3.27;1.43;;;;;;;15.18;46.14;95837.41;4990508;28;20227;-83
2022/04/13 01:02:38;;;;;;;3.03;1.27;;;;;;;15.10;46.45;95848.81;4990786;28;20212;-83
2022/04/13 01:05:08;;;;;;;4.40;1.50;;;;;;;15.05;46.11;95846.13;4996761;28;20237;-83
2022/04/13 01:07:36;;;;;;;1.90;1.30;;;;;;;14.91;46.93;95845.00;5002417;28;20227;-83
2022/04/13 01:10:06;;;;;;;1.73;1.17;;;;;;;14.84;48.60;95849.88;5017971;28;20214;-82
2022/04/13 01:12:34;;;;;;;1.90;1.37;;;;;;;14.79;50.11;95858.03;5013310;28;20208;-83
2022/04/13 01:15:01;;;;;;;2.30;1.40;;;;;;;14.56;51.05;95848.44;5000638;28;20235;-82
2022/04/13 01:17:29;;;;;;;3.00;1.33;;;;;;;14.49;51.88;95854.13;4991966;28;20216;-83
2022/04/13 01:19:57;;;;;;;1.50;1.10;;;;;;;14.48;51.86;95867.97;5005297;28;20322;-83
2022/04/13 01:22:26;;;;;;;2.30;1.40;;;;;;;14.44;52.08;95861.47;4998960;28;20223;-83
2022/04/13 01:24:53;;;;;;;1.40;1.23;;;;;;;14.47;52.71;95867.16;5003885;28;20204;-83
2022/04/13 01:27:21;;;;;;;1.67;1.17;;;;;;;14.39;53.14;95860.34;5006880;28;20231;-83
2022/04/13 01:29:52;;;;;;;1.30;1.20;;;;;;;14.38;53.00;95869.56;4988182;28;20268;-82
2022/04/13 01:32:19;;;;;;;1.73;1.60;;;;;;;14.34;54.88;95879.31;5010982;28;20295;-83
2022/04/13 01:34:48;;;;;;;1.97;1.50;;;;;;;14.31;54.84;95881.72;4998030;28;20330;-83
2022/04/13 01:37:16;;;;;;;2.90;1.60;;;;;;;14.24;55.24;95876.53;5003418;28;20200;-83
2022/04/13 01:39:45;;;;;;;2.87;1.77;;;;;;;14.13;56.38;95888.44;5010971;28;20292;-83
2022/04/13 01:42:12;;;;;;;3.27;1.80;;;;;;;14.03;56.58;95891.91;5007168;28;20226;-83
2022/04/13 01:44:41;;;;;;;2.13;1.60;;;;;;;13.89;57.61;95901.59;4995171;28;20298;-83
2022/04/13 01:47:09;;;;;;;2.83;1.80;;;;;;;13.82;58.94;95902.91;5016874;28;20232;-83
2022/04/13 01:49:36;;;;;;;2.83;1.73;;;;;;;13.82;59.71;95913.75;5007790;28;20200;-83
2022/04/13 01:52:05;;;;;;;3.33;2.37;;;;;;;13.75;60.31;95907.75;5002564;28;20215;-82
2022/04/13 01:54:32;;;;;;;3.57;2.40;;;;;;;13.65;60.14;95916.63;5003196;28;20204;-82
2022/04/13 01:57:01;;;;;;;3.47;2.20;;;;;;;13.52;61.06;95922.50;4992536;28;20215;-82
2022/04/13 01:59:28;;;;;;;4.53;2.30;;;;;;;13.40;62.74;95922.66;4997408;28;20227;-82
2022/04/13 02:01:55;;;;;;;4.50;2.40;;;;;;;13.37;63.33;95934.03;4995748;28;20204;-82
2022/04/13 02:04:24;;;;;;;3.17;1.97;;;;;;;13.38;63.36;95932.13;4995491;28;20302;-82
2022/04/13 02:06:51;;;;;;;6.40;2.27;;;;;;;13.35;64.49;95925.34;4991571;28;20204;-82
2022/04/13 02:09:19;;;;;;;3.17;1.93;;;;;;;13.32;64.05;95936.69;4998084;28;20207;-82
2022/04/13 02:11:47;;;;;;;6.07;2.00;;;;;;;13.32;64.98;95941.31;4994157;28;20227;-82
2022/04/13 02:14:16;;;;;;;2.83;2.00;;;;;;;13.12;67.06;95942.69;4997300;28;20275;-83
2022/04/13 02:16:43;;;;;;;2.73;2.00;;;;;;;13.06;66.67;95946.44;4989779;28;20226;-82
2022/04/13 02:19:11;;;;;;;3.87;2.00;;;;;;;13.00;67.64;95949.38;5001290;28;20222;-83
2022/04/13 02:21:38;;;;;;;3.17;2.00;;;;;;;12.96;68.35;95943.63;4992472;28;20224;-82
2022/04/13 02:24:07;;;;;;;3.67;2.03;;;;;;;13.01;68.32;95946.41;5000009;28;20208;-82
2022/04/13 02:26:34;;;;;;;3.80;1.90;;;;;;;12.92;69.10;95947.09;4996838;28;20210;-82
2022/04/13 02:29:01;;;;;;;2.60;1.67;;;;;;;12.86;68.85;95954.34;5009364;28;20238;-82
2022/04/13 02:31:30;;;;;;;1.50;1.40;;;;;;;12.77;68.97;95947.72;5005323;28;20208;-82
2022/04/13 02:33:57;;;;;;;2.60;1.40;;;;;;;12.77;68.48;95950.44;5001092;28;20211;-82
2022/04/13 02:36:24;;;;;;;1.90;1.63;;;;;;;12.70;69.13;95953.34;4999475;28;20259;-82
2022/04/13 02:38:53;;;;;;;4.20;1.93;;;;;;;12.73;69.11;95960.16;4993968;28;20295;-82
2022/04/13 02:41:20;;;;;;;4.60;1.53;;;;;;;12.69;69.71;95954.44;4997979;28;20319;-82
2022/04/13 02:43:47;;;;;;;2.00;1.57;;;;;;;12.66;70.39;95954.94;4994717;28;20864;-82
2022/04/13 02:46:14;;;;;;;4.17;2.03;;;;;;;12.63;71.67;95955.44;4993088;28;20269;-82
2022/04/13 02:48:43;;;;;;;2.87;1.87;;;;;;;12.65;71.45;95958.72;5002628;28;20236;-82
2022/04/13 02:51:10;;;;;;;2.80;1.90;;;;;;;12.55;70.99;95949.66;4993956;28;20262;-83
2022/04/13 02:53:37;;;;;;;3.63;1.70;;;;;;;12.44;71.78;95963.06;5001198;28;20211;-82
2022/04/13 02:56:04;;;;;;;2.50;1.60;;;;;;;12.40;72.10;95967.34;5007478;28;20216;-82
2022/04/13 02:58:32;;;;;;;6.00;1.90;;;;;;;12.43;72.24;95966.81;4996814;28;20288;-82
2022/04/13 03:00:59;;;;;;;4.67;2.00;;;;;;;12.35;72.42;95964.56;4988160;28;20317;-82
2022/04/13 03:03:26;;;;;;;3.33;1.83;;;;;;;12.32;72.86;95969.66;5011107;28;20228;-82
2022/04/13 03:05:54;;;;;;;4.07;1.73;;;;;;;12.23;73.70;95971.16;4998873;28;20205;-82
2022/04/13 03:08:21;;;;;;;5.33;1.63;;;;;;;12.24;73.43;95978.22;4996852;28;20330;-82
2022/04/13 03:10:48;;;;;;;1.80;1.43;;;;;;;12.18;73.87;95958.38;4990047;28;20196;-82
2022/04/13 03:13:15;;;;;;;2.40;1.63;;;;;;;12.25;74.82;95969.81;5014701;28;20295;-82
2022/04/13 03:15:42;;;;;;;5.67;2.03;;;;;;;12.19;74.43;95959.19;5005449;28;20216;-82
2022/04/13 03:18:09;;;;;;;4.37;1.80;;;;;;;12.11;74.87;95968.56;5002991;28;20296;-82
2022/04/13 03:20:36;;;;;;;3.57;1.93;;;;;;;12.03;74.82;95967.09;4990879;28;20232;-82
2022/04/13 03:23:05;;;;;;;4.17;2.10;;;;;;;11.86;75.57;95957.38;4995729;28;20216;-82
2022/04/13 03:25:33;;;;;;;7.47;2.43;;;;;;;11.77;76.93;95962.38;4995228;28;20207;-81
2022/04/13 03:28:01;;;;;;;3.00;1.77;;;;;;;11.70;76.83;95961.69;4999948;28;20334;-82
2022/04/13 03:30:28;;;;;;;5.40;2.00;;;;;;;11.62;77.98;95964.81;4989946;28;20204;-82
2022/04/13 03:32:55;;;;;;;3.57;2.00;;;;;;;11.59;77.39;95968.00;4995761;28;20207;-82
2022/04/13 03:35:23;;;;;;;3.00;2.07;;;;;;;11.62;77.54;95959.41;5002382;28;20218;-82
2022/04/13 03:37:50;;;;;;;2.30;1.60;;;;;;;11.63;77.71;95955.63;4992302;28;20204;-82
2022/04/13 03:40:18;;;;;;;2.87;1.90;;;;;;;11.70;76.32;95964.41;4991136;28;20326;-82
2022/04/13 03:42:45;;;;;;;3.43;1.73;;;;;;;11.73;76.02;95967.44;5003476;28;20235;-81
2022/04/13 03:45:14;;;;;;;7.23;2.60;;;;;;;11.76;76.13;95968.84;5003830;28;20293;-82
2022/04/13 03:47:41;;;;;;;4.07;2.10;;;;;;;11.77;74.97;95965.06;5003306;28;20246;-82
2022/04/13 03:50:10;;;;;;;5.27;1.90;;;;;;;11.79;73.95;95960.25;5001952;28;20240;-82
2022/04/13 03:52:38;;;;;;;2.70;1.70;;;;;;;11.88;73.79;95968.75;5007290;28;20218;-82
2022/04/13 03:55:08;;;;;;;7.10;1.97;;;;;;;11.87;72.79;95959.81;5006975;28;20299;-82
2022/04/13 03:57:37;;;;;;;3.73;1.60;;;;;;;11.86;72.05;95960.88;5003761;28;20208;-82
2022/04/13 04:00:05;;;;;;;2.33;1.57;;;;;;;11.90;69.40;95969.34;5007591;28;20203;-82
2022/04/13 04:02:39;;;;;;;4.07;1.60;;;;;;;11.93;69.07;95960.72;5002000;28;20265;-82
2022/04/13 04:05:07;;;;;;;2.73;1.67;;;;;;;11.98;68.88;95960.81;5003431;28;20208;-82
2022/04/13 04:07:34;;;;;;;1.77;1.50;;;;;;;12.03;68.93;95966.28;4997333;28;20227;-82
2022/04/13 04:10:02;;;;;;;4.10;1.63;;;;;;;12.05;69.27;95958.75;4998018;28;20286;-82
2022/04/13 04:12:29;;;;;;;3.07;2.03;;;;;;;11.97;69.88;95962.69;5000529;28;20213;-82
2022/04/13 04:15:01;;;;;;;4.00;2.57;;;;;;;11.83;70.32;95955.97;5004618;28;20207;-82
2022/04/13 04:17:28;;;;;;;5.67;2.07;;;;;;;11.69;71.93;95944.66;5010158;28;20286;-81
2022/04/13 04:19:55;;;;;;;4.40;2.10;;;;;;;11.70;72.19;95956.28;5002191;28;20223;-82
2022/04/13 04:22:24;;;;;;;4.43;2.97;;;;;;;11.64;71.80;95949.97;4997136;28;20216;-82
2022/04/13 04:24:51;;;;;;;2.80;1.60;;;;;;;11.67;70.50;95956.75;5000964;28;20206;-81
2022/04/13 04:27:18;;;;;;;3.40;1.60;;;;;;;11.64;70.66;95946.47;5014373;28;20208;-81
2022/04/13 04:29:45;;;;;;;3.03;1.80;;;;;;;11.61;70.74;95953.16;4991311;28;20206;-82
2022/04/13 04:32:14;;;;;;;2.90;1.97;;;;;;;11.61;71.28;95953.16;4996848;28;20278;-81
2022/04/13 04:34:41;;;;;;;5.60;2.40;;;;;;;11.64;72.41;95962.69;5010915;28;20206;-81
2022/04/13 04:37:08;;;;;;;2.00;1.67;;;;;;;11.63;72.33;95955.63;4996081;28;20274;-82
2022/04/13 04:39:35;;;;;;;4.30;1.90;;;;;;;11.62;71.51;95964.81;5005243;28;20212;-81
2022/04/13 04:42:04;;;;;;;3.47;3.17;;;;;;;11.48;72.81;95972.44;4992271;28;20232;-82
2022/04/13 04:44:31;;;;;;;7.57;4.53;;;;;;;11.43;73.45;95966.09;4992259;28;20231;-81
2022/04/13 04:46:58;;;;;;;3.33;2.80;;;;;;;11.38;73.61;95959.56;4996420;28;20236;-81
2022/04/13 04:49:26;;;;;;;4.10;2.60;;;;;;;11.36;74.90;95956.28;5000182;28;20216;-81
2022/04/13 04:51:53;;;;;;;4.13;1.60;;;;;;;11.38;76.25;95958.75;5008123;28;20215;-81
2022/04/13 04:54:20;;;;;;;6.13;1.80;;;;;;;11.31;75.63;95964.28;5003946;28;20215;-81
2022/04/13 04:56:48;;;;;;;3.27;1.40;;;;;;;11.27;77.73;95957.75;4991095;28;20207;-81
2022/04/13 04:59:15;;;;;;;4.47;2.00;;;;;;;11.27;77.61;95973.13;4999549;28;20211;-81
2022/04/13 05:01:42;;;;;;;3.20;1.73;;;;;;;11.27;77.31;95975.84;5002585;28;20267;-81
2022/04/13 05:04:10;;;;;;;3.07;1.40;;;;;;;11.13;78.21;95983.44;5004153;28;20199;-81
2022/04/13 05:06:38;;;;;;;2.77;1.67;;;;;;;11.09;77.92;95974.16;5002036;28;20265;-81
2022/04/13 05:09:05;;;;;;;2.70;1.70;;;;;;;11.09;77.72;95978.75;4997761;28;20207;-83
2022/04/13 05:11:32;;;;;;;2.73;1.70;;;;;;;11.05;78.99;95986.53;4998947;28;20216;-81
2022/04/13 05:14:00;;;;;;;7.37;2.60;;;;;;;11.08;78.35;95980.63;4996831;28;20209;-81
2022/04/13 05:16:27;;;;;;;3.93;2.07;;;;;;;11.09;78.77;95974.16;4995491;28;20680;-81
2022/04/13 05:18:54;;;;;;;3.50;1.60;;;;;;;11.18;77.81;95980.81;4999179;28;20208;-81
2022/04/13 05:21:21;;;;;;;2.93;1.60;;;;;;;11.22;78.16;95983.88;5013020;28;20264;-81
2022/04/13 05:23:49;;;;;;;5.90;3.60;;;;;;;11.23;77.25;95983.59;4994696;28;20299;-82
2022/04/13 05:26:18;;;;;;;5.63;2.30;;;;;;;11.19;76.87;95978.94;4994804;28;20208;-81
2022/04/13 05:28:47;;;;;;;4.20;2.20;;;;;;;11.16;77.59;95971.31;4990791;28;20255;-81
2022/04/13 05:31:14;;;;;;;6.60;2.53;;;;;;;11.25;77.67;95986.88;4990595;28;20211;-81
2022/04/13 05:33:41;;;;;;;2.57;2.13;;;;;;;11.30;77.54;95989.69;5006916;28;20227;-82
2022/04/13 05:36:09;;;;;;;4.37;1.67;;;;;;;11.34;79.15;95982.72;4993188;28;20207;-82
2022/04/13 05:38:36;;;;;;;6.57;2.37;;;;;;;11.28;78.23;95991.00;4994108;28;20282;-81
2022/04/13 05:41:04;;;;;;;4.17;2.20;;;;;;;11.29;78.05;95995.34;4996082;28;20220;-81
2022/04/13 05:43:34;;;;;;;2.77;1.60;;;;;;;11.32;80.19;95994.84;5001647;28;20291;-82
2022/04/13 05:46:04;;;;;;;5.47;1.90;;;;;;;11.29;78.68;95998.03;5004057;28;20301;-82
2022/04/13 05:48:31;;;;;;;4.07;2.37;;;;;;;11.17;80.69;95989.97;4999927;28;20334;-82
2022/04/13 05:50:59;;;;;;;2.77;2.20;;;;;;;11.13;79.07;95982.63;4999556;28;20208;-82
2022/04/13 05:53:26;;;;;;;2.10;1.90;;;;;;;11.14;79.18;95993.19;4991857;28;20257;-82
2022/04/13 05:55:56;;;;;;;11.07;4.70;;;;;;;11.19;79.22;96004.09;5006349;28;20232;-82
2022/04/13 05:58:26;;;;;;;6.10;3.70;;;;;;;11.18;79.29;95997.03;4990204;28;20212;-82
2022/04/13 06:00:54;;;;;;;10.63;5.03;;;;;;;11.12;78.72;95991.78;5003658;28;20295;-82
2022/04/13 06:03:22;;;;;;;13.67;5.37;;;;;;;11.19;80.11;96000.56;4997736;28;20223;-82
2022/04/13 06:05:50;;;;;;;17.23;9.90;;;;;;;11.14;79.16;96006.69;4989210;28;20200;-81
2022/04/13 06:08:18;;;;;;;10.10;5.47;;;;;;;11.08;79.71;96006.81;4988585;28;20218;-82
2022/04/13 06:10:46;;;;;;;14.13;7.90;;;;;;;11.11;80.67;96012.56;4987560;28;20200;-82
2022/04/13 06:13:13;;;;;;;23.63;13.00;;;;;;;11.11;80.78;96015.28;4998669;28;20215;-82
2022/04/13 06:15:43;;;;;;;11.60;5.17;;;;;;;11.14;80.28;96016.69;4990814;28;20228;-82
2022/04/13 06:18:10;;;;;;;7.97;3.07;;;;;;;11.08;79.13;96023.03;4998183;28;20212;-82
2022/04/13 06:20:37;;;;;;;11.30;3.20;;;;;;;11.05;78.97;96027.06;4993407;28;20238;-82
2022/04/13 06:23:04;;;;;;;6.57;3.50;;;;;;;11.06;80.00;96017.88;4991393;28;20269;-82
2022/04/13 06:25:32;;;;;;;9.30;3.27;;;;;;;11.10;80.57;96019.03;4999598;28;20224;-82
2022/04/13 06:27:59;;;;;;;9.83;3.67;;;;;;;11.13;80.37;96015.88;4995806;28;20266;-82
2022/04/13 06:30:26;;;;;;;8.93;3.50;;;;;;;11.22;81.38;96024.41;4987912;28;20207;-82
2022/04/13 06:32:55;;;;;;;7.80;3.50;;;;;;;11.22;81.39;96019.81;4996475;28;20246;-82
2022/04/13 06:35:23;;;;;;;9.13;3.97;;;;;;;11.22;82.92;96025.22;5001220;28;20208;-82
2022/04/13 06:37:50;;;;;;;8.40;3.43;;;;;;;11.25;80.44;96029.31;5003013;28;20207;-82
2022/04/13 06:40:17;;;;;;;11.87;3.60;;;;;;;11.18;79.12;96034.88;4997339;28;20298;-82
2022/04/13 06:42:44;;;;;;;10.77;4.90;;;;;;;11.16;80.05;96034.28;5000616;28;20224;-82
2022/04/13 06:45:15;;;;;;;7.43;2.97;;;;;;;11.16;81.03;96030.75;4989326;28;20240;-82
2022/04/13 06:47:42;;;;;;;5.63;2.90;;;;;;;11.17;81.28;96041.31;4990391;28;20326;-82
2022/04/13 06:50:12;;;;;;;10.73;3.83;;;;;;;11.23;81.10;96043.06;4994732;28;20212;-82
2022/04/13 06:52:40;;;;;;;6.80;3.30;;;;;;;11.31;84.14;96045.38;4997168;28;20220;-82
2022/04/13 06:55:09;;;;;;;9.90;3.63;;;;;;;11.38;84.11;96046.06;4988786;28;20218;-82
2022/04/13 06:57:37;;;;;;;7.43;3.00;;;;;;;11.40;82.37;96043.09;5005473;28;20204;-82
2022/04/13 07:00:06;;;;;;;8.13;3.50;;;;;;;11.43;79.73;96052.59;5004768;28;20238;-82
2022/04/13 07:02:34;;;;;;;7.10;2.90;;;;;;;11.50;85.41;96056.81;5003860;28;20231;-82
2022/04/13 07:05:01;;;;;;;5.57;2.90;;;;;;;11.47;85.49;96049.19;4995924;28;20204;-82
2022/04/13 07:07:30;;;;;;;7.43;2.97;;;;;;;11.54;85.28;96047.16;5000746;28;20227;-82
2022/04/13 07:09:57;;;;;;;6.03;3.00;;;;;;;11.56;85.23;96046.91;4989105;28;20230;-82
2022/04/13 07:12:24;;;;;;;5.53;2.40;;;;;;;11.43;85.41;96050.72;4998391;28;20219;-82
2022/04/13 07:14:51;;;;;;;5.47;2.37;;;;;;;11.35;85.54;96051.94;4999094;28;20204;-82
2022/04/13 07:17:19;;;;;;;6.43;3.23;;;;;;;11.44;85.23;96054.25;4991819;28;20212;-89
2022/04/13 07:19:46;;;;;;;6.93;2.50;;;;;;;11.48;85.40;96040.03;5006120;28;20208;-88
2022/04/13 07:22:13;;;;;;;6.13;2.80;;;;;;;11.40;83.04;96047.72;4995464;28;20228;-88
2022/04/13 07:24:41;;;;;;;7.97;3.37;;;;;;;11.42;87.15;96040.16;5006566;28;20235;-88
2022/04/13 07:27:08;;;;;;;4.90;1.83;;;;;;;11.48;87.03;96042.72;5009181;28;20216;-88
2022/04/13 07:29:35;;;;;;;8.60;1.60;;;;;;;11.61;86.77;96042.41;4996346;28;20208;-89
2022/04/13 07:32:03;;;;;;;4.33;1.90;;;;;;;11.65;87.85;96034.63;5003477;28;20209;-88
2022/04/13 07:34:30;;;;;;;1.70;1.27;;;;;;;11.80;87.24;96036.81;5003232;28;20200;-88
2022/04/13 07:36:57;;;;;;;2.53;1.60;;;;;;;11.86;86.40;96035.81;4999647;28;20213;-88
2022/04/13 07:39:24;;;;;;;3.07;1.50;;;;;;;11.97;87.04;96038.44;4998218;28;20247;-88
2022/04/13 07:41:53;;;;;;;3.37;1.30;;;;;;;12.02;85.95;96041.22;5004500;28;20232;-88
2022/04/13 07:44:20;;;;;;;3.20;1.40;;;;;;;12.03;85.35;96047.47;5001003;28;20218;-90
2022/04/13 07:46:47;;;;;;;3.23;1.40;;;;;;;12.15;85.14;96063.63;4997809;28;20232;-87
2022/04/13 07:49:14;;;;;;;2.77;1.37;;;;;;;12.19;83.92;96052.03;4999205;28;20204;-89
2022/04/13 07:51:41;;;;;;;3.83;1.37;;;;;;;12.31;82.16;96054.66;4997662;28;20274;-88
2022/04/13 07:54:08;;;;;;;3.20;1.90;;;;;;;12.48;82.52;96063.56;5020553;28;20208;-89
2022/04/13 07:56:36;;;;;;;3.10;1.80;;;;;;;12.71;77.60;96065.25;5019904;28;20211;-87
2022/04/13 07:59:05;;;;;;;4.63;1.83;;;;;;;13.14;74.28;96059.03;4997954;28;20208;-89
2022/04/13 08:01:32;;;;;;;3.00;1.80;;;;;;;13.68;72.75;96059.09;5004704;28;20216;-91
2022/04/13 08:03:59;;;;;;;5.70;1.40;;;;;;;14.19;67.80;96065.78;4993638;28;20208;-88
2022/04/13 08:06:26;;;;;;;3.07;1.20;;;;;;;14.52;66.15;96065.50;5005424;28;20207;-89
2022/04/13 08:08:53;;;;;;;2.00;1.33;;;;;;;14.95;64.49;96064.41;4995883;28;20295;-90
2022/04/13 08:11:22;;;;;;;3.73;1.70;;;;;;;15.28;60.56;96060.47;4996350;28;20223;-89
2022/04/13 08:13:49;;;;;;;3.53;1.77;;;;;;;15.72;57.26;96057.34;4997005;28;20239;-89
2022/04/13 08:16:17;;;;;;;2.70;1.90;;;;;;;16.17;52.35;96059.28;4994556;28;20235;-90
2022/04/13 08:18:45;;;;;;;5.53;2.20;;;;;;;16.53;50.44;96066.34;4998362;28;20211;-87
2022/04/13 08:21:12;;;;;;;4.53;1.70;;;;;;;16.87;48.26;96063.03;4993645;28;20212;-90
2022/04/13 08:23:39;;;;;;;5.43;2.30;;;;;;;17.07;47.99;96062.97;5001740;28;20289;-89
2022/04/13 08:26:06;;;;;;;2.67;1.97;;;;;;;17.22;48.55;96054.72;5002790;28;20207;-91
2022/04/13 08:28:34;;;;;;;3.93;2.00;;;;;;;17.32;46.86;96045.69;5003789;28;20200;-90
2022/04/13 08:31:02;;;;;;;5.13;1.70;;;;;;;17.46;45.74;96049.44;5005223;28;20203;-90
2022/04/13 08:33:30;;;;;;;4.40;1.80;;;;;;;17.52;45.44;96061.97;5001154;28;20204;-88
2022/04/13 08:35:57;;;;;;;5.67;2.57;;;;;;;17.56;47.89;96054.03;4992877;28;20216;-91
2022/04/13 08:38:25;;;;;;;4.67;2.50;;;;;;;17.72;47.95;96063.78;5002810;28;20232;-89
2022/04/13 08:40:57;;;;;;;8.07;2.63;;;;;;;17.78;48.64;96051.72;5004026;28;20211;-90
2022/04/13 08:43:31;;;;;;;8.00;2.83;;;;;;;17.68;49.35;96052.63;5002250;28;20224;-91
2022/04/13 08:46:00;;;;;;;6.40;2.60;;;;;;;17.70;49.77;96065.97;5005271;28;20231;-90
2022/04/13 08:48:28;;;;;;;6.33;2.37;;;;;;;17.77;50.82;96063.78;5014346;28;20262;-90
2022/04/13 08:51:03;;;;;;;10.33;2.67;;;;;;;17.90;51.60;96063.13;5011243;28;20293;-91
2022/04/13 08:53:32;;;;;;;8.67;2.53;;;;;;;17.92;52.29;96052.75;5005152;28;20215;-91
2022/04/13 08:56:00;;;;;;;7.00;2.63;;;;;;;18.20;52.39;96066.75;5007895;28;20207;-88
2022/04/13 08:58:41;;;;;;;5.27;2.50;;;;;;;18.33;53.78;96058.72;5020173;28;20206;-91
2022/04/13 09:01:17;;;;;;;11.47;2.57;;;;;;;18.56;52.69;96059.03;5011659;28;20219;-92
2022/04/13 09:03:48;;;;;;;6.70;2.30;;;;;;;18.23;52.48;96058.78;5019474;28;20222;-88
2022/04/13 09:06:21;;;;;;;4.13;2.27;;;;;;;18.20;51.37;96047.63;5009659;28;20226;-88
2022/04/13 09:08:52;;;;;;;5.33;1.87;;;;;;;17.85;51.07;96060.44;5018051;28;20215;-90
2022/04/13 09:11:22;;;;;;;7.37;2.43;;;;;;;18.22;50.19;96054.41;5013515;28;20212;-91
2022/04/13 09:13:50;;;;;;;5.53;1.80;;;;;;;18.44;47.46;96060.25;5011695;28;20204;-89
2022/04/13 09:16:17;;;;;;;4.30;2.17;;;;;;;18.79;47.76;96064.63;5007871;28;20259;-90
2022/04/13 09:18:46;;;;;;;3.73;1.90;;;;;;;18.87;46.78;96052.22;5004016;28;20208;-88
2022/04/13 09:21:17;;;;;;;5.57;1.93;;;;;;;19.13;45.64;96058.22;5001222;28;20215;-89
2022/04/13 09:23:45;;;;;;;6.90;2.77;;;;;;;19.28;45.23;96052.56;4998980;28;20254;-92
2022/04/13 09:26:14;;;;;;;8.43;2.43;;;;;;;19.33;44.35;96049.75;5004595;28;20208;-90
2022/04/13 09:28:43;;;;;;;5.30;2.10;;;;;;;19.45;43.50;96052.09;5008582;28;20260;-90
2022/04/13 09:31:10;;;;;;;6.00;2.00;;;;;;;19.54;41.59;96045.69;4992713;28;20212;-92
2022/04/13 09:33:37;;;;;;;2.67;1.60;;;;;;;19.63;41.93;96052.16;5011967;28;20219;-92
2022/04/13 09:36:05;;;;;;;2.72;1.70;;;;;;;19.75;39.38;96048.94;5017458;28;20203;-92
2022/04/13 09:38:35;;;;;;;3.65;1.70;;;;;;;19.93;41.11;96053.63;4997080;28;20239;-90
2022/04/13 09:41:11;;;;;;;4.55;2.10;;;;;;;19.99;39.62;96041.47;5009172;28;20204;-89
2022/04/13 09:43:39;;;;;;;3.15;1.70;;;;;;;19.96;41.09;96049.47;5006344;28;20231;-91
2022/04/13 09:46:08;;;;;;;5.28;1.70;;;;;;;20.01;39.95;96041.16;5007011;28;20209;-89
2022/04/13 09:48:35;;;;;;;5.07;2.22;;;;;;;20.14;40.87;96045.91;4996256;28;20255;-91
2022/04/13 09:51:02;;;;;;;4.20;2.10;;;;;;;20.37;39.40;96042.28;5003390;28;20302;-89
2022/04/13 09:53:29;;;;;;;3.92;2.10;;;;;;;20.50;42.01;96039.88;5008705;28;20207;-91
2022/04/13 09:55:59;;;;;;;2.60;1.70;;;;;;;20.52;39.96;96032.97;5000634;28;20296;-90
2022/04/13 09:58:30;;;;;;;3.08;1.80;;;;;;;20.43;39.09;96040.25;5005086;28;20238;-91
2022/04/13 10:01:00;;;;;;;7.07;1.90;;;;;;;20.35;40.21;96036.28;4994693;28;20208;-92
2022/04/13 10:03:28;;;;;;;5.80;1.75;;;;;;;20.37;40.14;96036.78;4997502;28;20231;-91
2022/04/13 10:05:56;;;;;;;4.95;1.80;;;;;;;20.51;37.88;96039.56;4993864;28;20208;-90
2022/04/13 10:08:25;;;;;;;4.13;1.73;;;;;;;20.52;38.93;96037.63;5020455;28;20210;-92
2022/04/13 10:10:54;;;;;;;5.25;2.30;;;;;;;20.72;38.73;96027.13;5003084;28;20200;-90
2022/04/13 10:13:33;;;;;;;4.32;1.80;;;;;;;20.73;37.83;96019.72;4996104;28;20295;-92
2022/04/13 10:16:02;;;;;;;2.50;1.67;;;;;;;20.86;37.00;96026.31;4997622;28;20229;-90
2022/04/13 10:18:31;;;;;;;5.10;1.90;;;;;;;20.82;37.66;96020.63;4995701;28;20216;-90
2022/04/13 10:20:59;;;;;;;4.82;1.80;;;;;;;20.74;37.22;96018.59;4993595;28;20212;-91
2022/04/13 10:23:26;;;;;;;6.80;1.80;;;;;;;20.92;37.28;96020.44;4999497;28;20342;-91
2022/04/13 10:26:10;;;;;;;2.53;1.95;;;;;;;21.12;38.30;96020.03;4996919;28;20211;-91
2022/04/13 10:28:49;;;;;;;2.65;1.67;;;;;;;21.15;36.08;96013.13;5005800;28;20211;-90
2022/04/13 10:31:17;;;;;;;3.30;1.77;;;;;;;21.30;38.29;96009.28;5002816;28;20297;-92
2022/04/13 10:33:48;;;;;;;6.75;2.10;;;;;;;21.28;36.93;96008.75;4990590;28;20294;-90
2022/04/13 10:36:16;;;;;;;3.45;1.80;;;;;;;21.40;36.23;96009.06;5006520;28;20236;-89
2022/04/13 10:38:44;;;;;;;6.95;2.40;;;;;;;21.48;36.00;96000.09;4998099;28;20211;-90
2022/04/13 10:41:16;;;;;;;3.75;1.90;;;;;;;21.33;35.38;96014.16;4990023;28;20208;-90
2022/04/13 10:43:52;;;;;;;3.38;1.92;;;;;;;21.22;35.47;96004.50;4995477;28;20273;-87
2022/04/13 10:46:21;;;;;;;3.35;1.98;;;;;;;21.28;34.56;96011.50;4992687;28;20201;-91
2022/04/13 10:48:54;;;;;;;4.70;2.00;;;;;;;21.45;34.82;95995.22;4988324;28;20239;-90
2022/04/13 10:51:26;;;;;;;5.68;1.80;;;;;;;21.60;34.74;96008.66;5015927;28;20231;-88
2022/04/13 10:54:00;;;;;;;4.35;2.00;;;;;;;21.64;33.86;96001.38;4990804;28;20211;-90
2022/04/13 10:56:31;;;;;;;4.25;1.95;;;;;;;21.69;34.07;95998.53;5000381;28;20212;-90
2022/04/13 10:59:04;;;;;;;5.47;2.25;;;;;;;21.87;34.07;95994.00;4998006;28;20215;-92
2022/04/13 11:01:39;;;;;;;4.05;2.00;;;;;;;21.99;34.71;95996.22;5002285;28;20351;-90
2022/04/13 11:04:07;;;;;;;5.50;2.05;;;;;;;22.15;34.20;95992.00;5001249;28;20349;-88
2022/04/13 11:06:36;;;;;;;4.03;2.10;;;;;;;22.12;33.80;95982.41;4996646;28;20311;-91
2022/04/13 11:09:07;;;;;;;4.18;1.88;;;;;;;22.29;34.72;95978.19;4992466;28;20204;-91
2022/04/13 11:11:36;;;;;;;6.80;1.92;;;;;;;22.51;33.23;95978.97;4998814;28;20294;-89
2022/04/13 11:14:17;;;;;;;5.20;2.22;;;;;;;22.45;33.19;95973.91;5002674;28;20208;-91
2022/04/13 11:16:44;;;;;;;3.83;2.20;;;;;;;22.21;33.74;95974.22;5002794;28;20223;-90
2022/04/13 11:19:21;;;;;;;5.75;2.38;;;;;;;22.39;34.73;95975.97;5003162;28;20270;-90
2022/04/13 11:22:14;;;;;;;4.32;2.05;;;;;;;22.47;32.66;95975.22;5006361;28;20278;-90
2022/04/13 11:24:54;;;;;;;5.82;2.00;;;;;;;22.32;33.30;95975.59;5007571;28;20327;-91
2022/04/13 11:27:22;;;;;;;4.45;1.70;;;;;;;22.29;34.88;95969.94;5000621;28;20235;-90
2022/04/13 11:30:00;;;;;;;4.93;1.88;;;;;;;22.42;34.03;95969.84;5008122;28;20203;-90
2022/04/13 11:32:32;;;;;;;5.88;2.30;;;;;;;22.69;34.18;95968.88;5019030;28;20204;-92
2022/04/13 11:35:02;;;;;;;3.00;2.42;;;;;;;22.82;33.99;95973.47;4996113;28;20204;-92
2022/04/13 11:37:44;;;;;;;5.18;2.28;;;;;;;22.69;33.35;95960.59;5004403;28;20239;-91
2022/04/13 11:40:13;;;;;;;5.00;2.10;;;;;;;22.71;33.63;95971.31;5007788;28;20296;-90